Flight Track Log - Related Links

Times and Time Zones

All times are in EDT time to prevent confusion due to time zone crossing. See the EGF4174 flight status page for this flight to view local times or setup timezone preferences in your user account.

Time Position Orientation Groundspeed Altitude Reporting Facility
EDT Latitude Longitude Course Direction KTS MPH feet Rate Location/Type
Tue 04:42:57 PM 43.1075 -76.1347 286° West 161 185 1,100  Level Boston Center
Tue 04:43:40 PM 43.1100 -76.1833 274° West 180 207 2,900 2,458 Climbing Boston Center
Tue 04:45:00 PM 43.1966 -76.4466 324° Northwest  Level FlightAware Approximate
Tue 04:45:21 PM 43.1058 -76.3428 268° West 254 292 7,000  Level Cleveland Center
Tue 04:46:00 PM 43.2102 -76.5712 281° West  Level FlightAware Approximate
Tue 04:46:21 PM 43.1053 -76.4425 270° West 254 292 9,500  Level Cleveland Center
Tue 04:47:00 PM 43.2336 -76.6953 286° West  Level FlightAware Approximate
Tue 04:47:22 PM 43.1031 -76.5592 269° West 278 320 11,200  Level Cleveland Center
Tue 04:48:00 PM 43.2599 -76.8185 286° West  Level FlightAware Approximate
Tue 04:48:21 PM 43.1011 -76.6875 269° West 316 364 12,700  Level Cleveland Center
Tue 04:49:21 PM 43.0947 -76.8100 266° West 343 395 14,400 1,600 Climbing Cleveland Center
Tue 04:50:21 PM 43.0969 -76.9436 271° West 356 410 15,900 1,650 Climbing Cleveland Center
Tue 04:51:21 PM 43.0969 -77.0803 270° West 356 410 17,700 1,450 Climbing Cleveland Center
Tue 04:52:21 PM 43.0992 -77.2194 271° West 368 423 18,800 1,200 Climbing Cleveland Center
Tue 04:53:21 PM 43.0989 -77.3617 270° West 373 429 20,100 1,250 Climbing Cleveland Center
Tue 04:54:21 PM 43.1031 -77.5064 272° West 379 436 21,300 1,450 Climbing Cleveland Center
Tue 04:55:21 PM 43.1028 -77.6600 270° West 391 450 23,000 1,600 Climbing Cleveland Center
Tue 04:56:21 PM 43.1022 -77.8050 270° West 391 450 24,500 1,650 Climbing Cleveland Center
Tue 04:57:21 PM 43.1036 -77.9558 271° West 391 450 26,300 1,800 Climbing Cleveland Center
Tue 04:58:21 PM 43.1047 -78.0978 271° West 391 450 28,100 1,750 Climbing Cleveland Center
Tue 04:59:21 PM 43.1056 -78.2372 271° West 379 436 29,800 1,700 Climbing Cleveland Center
Tue 05:00:21 PM 43.1039 -78.3739 269° West 373 429 31,500 2,050 Climbing Cleveland Center
Tue 05:01:21 PM 43.1047 -78.5272 270° West 373 429 33,900 1,700 Climbing Cleveland Center
Tue 05:02:21 PM 43.1050 -78.6639 270° West 363 418 34,900 1,000 Climbing Cleveland Center
Tue 05:03:21 PM 43.1031 -78.8033 269° West 363 418 35,900 550 Climbing Cleveland Center
Tue 05:04:21 PM 43.1031 -78.9539 270° West 374 430 36,000 80 Climbing Cleveland Center
Tue 05:04:36 PM 43.1000 -78.9667 252° West 390 449 36,000  Level Toronto Center
Tue 05:05:36 PM 43.0833 -79.1333 262° West 410 472 36,000  Level Toronto Center
Tue 05:06:36 PM 43.0833 -79.2833 270° West 410 472 36,000  Level Toronto Center
Tue 05:07:36 PM 43.0833 -79.4333 270° West 400 460 36,000  Level Toronto Center
Tue 05:08:36 PM 43.0833 -79.5667 270° West 390 449 36,000  Level Toronto Center
Tue 05:09:36 PM 43.0833 -79.7167 270° West 390 449 36,000  Level Toronto Center
Tue 05:10:36 PM 43.0833 -79.8667 270° West 390 449 36,000  Level Toronto Center
Tue 05:11:36 PM 43.0833 -80.0167 270° West 390 449 36,000  Level Toronto Center
Tue 05:12:36 PM 43.0833 -80.1500 270° West 390 449 36,000  Level Toronto Center
Tue 05:13:36 PM 43.0833 -80.3167 270° West 400 460 36,000  Level Toronto Center
Tue 05:14:36 PM 43.0667 -80.4833 262° West 400 460 36,000  Level Toronto Center
Tue 05:15:36 PM 43.0667 -80.6167 270° West 400 460 36,000  Level Toronto Center
Tue 05:16:36 PM 43.0667 -80.7667 270° West 400 460 36,000 -300 Level Toronto Center
Tue 05:17:36 PM 43.0500 -80.9333 262° West 400 460 35,400 -850 Descending Toronto Center
Tue 05:18:36 PM 43.0500 -81.1000 270° West 410 472 34,300 -700 Descending Toronto Center
Tue 05:19:36 PM 43.0500 -81.2333 270° West 410 472 34,000 -150 Descending Toronto Center
Tue 05:20:36 PM 43.0500 -81.3833 270° West 410 472 34,000  Level Toronto Center
Tue 05:21:36 PM 43.0333 -81.5500 262° West 410 472 34,000  Level Toronto Center
Tue 05:22:36 PM 43.0333 -81.7167 270° West 420 483 34,000  Level Toronto Center
Tue 05:23:36 PM 43.0333 -81.8667 270° West 420 483 34,000  Level Toronto Center
Tue 05:24:36 PM 43.0167 -82.0333 262° West 420 483 34,000  Level Toronto Center
Tue 05:25:36 PM 43.0167 -82.1833 270° West 420 483 34,000  Level Toronto Center
Tue 05:26:36 PM 43.0167 -82.3500 270° West 410 472 34,000  Level Toronto Center
Tue 05:27:36 PM 43.0167 -82.5000 270° West 410 472 34,000  Level Toronto Center
Tue 05:28:36 PM 43.0000 -82.6500 261° West 410 472 34,000  Level Toronto Center
Tue 05:29:22 PM 43.0086 -82.7608 276° West 421 484 34,000  Level Cleveland Center
Tue 05:30:22 PM 43.0036 -82.9111 267° West 409 471 34,000  Level Cleveland Center
Tue 05:31:22 PM 42.9964 -83.0586 266° West 397 457 34,000  Level Cleveland Center
Tue 05:32:22 PM 42.9908 -83.2086 267° West 397 457 34,000  Level Cleveland Center
Tue 05:33:22 PM 42.9831 -83.3644 266° West 403 464 34,000  Level Cleveland Center
Tue 05:34:22 PM 42.9772 -83.5175 267° West 403 464 34,000 -400 Level Cleveland Center
Tue 05:35:22 PM 42.9692 -83.6647 266° West 403 464 33,200 -900 Descending Cleveland Center
Tue 05:36:22 PM 42.9586 -83.8203 265° West 403 464 32,200 -600 Descending Cleveland Center
Tue 05:37:22 PM 42.9417 -83.9753 262° West 408 470 32,000 -100 Descending Cleveland Center
Tue 05:38:22 PM 42.9289 -84.1278 264° West 408 470 32,000 -619 Level Cleveland Center
Tue 05:40:36 PM 42.8833 -84.4833 260° West 410 472 30,000 -619 Descending Toronto Center
Tue 05:41:36 PM 42.8667 -84.6167 260° West 410 472 30,000  Level Toronto Center
Tue 05:41:52 PM 42.8747 -84.6711 281° West 408 470 30,000  Level Chicago Center
Tue 05:42:54 PM 42.8581 -84.8250 262° West 411 473 30,000  Level Chicago Center
Tue 05:43:56 PM 42.8431 -84.9761 262° West 404 465 30,000  Level Chicago Center
Tue 05:44:58 PM 42.8264 -85.1297 262° West 409 471 30,000  Level Chicago Center
Tue 05:46:00 PM 42.8094 -85.2856 262° West 415 478 30,000 -532 Level Chicago Center
Tue 05:47:02 PM 42.7917 -85.4450 261° West 423 487 28,900 -1,548 Descending Chicago Center
Tue 05:48:04 PM 42.7683 -85.6017 259° West 422 486 26,800 -2,177 Descending Chicago Center
Tue 05:49:06 PM 42.7336 -85.7883 256° West 422 486 24,400 -2,177 Descending Chicago Center
Tue 05:50:08 PM 42.7053 -85.9408 256° West 417 480 22,300 -2,032 Descending Chicago Center
Tue 05:51:10 PM 42.6778 -86.0903 256° West 409 471 20,200 -1,113 Descending Chicago Center
Tue 05:52:12 PM 42.6519 -86.2364 257° West 400 460 20,000 -96 Descending Chicago Center
Tue 05:53:15 PM 42.6231 -86.3828 255° West 399 459 20,000 -768 Level Chicago Center
Tue 05:54:17 PM 42.5964 -86.5308 256° West 403 464 18,400 -2,032 Descending Chicago Center
Tue 05:55:19 PM 42.5697 -86.6672 255° West 377 434 15,800 -2,565 Descending Chicago Center
Tue 05:56:21 PM 42.5356 -86.8225 253° West 362 417 13,100 -2,129 Descending Chicago Center
Tue 05:57:23 PM 42.5022 -86.9375 249° West 339 390 11,400 -1,500 Descending Chicago Center
Tue 05:58:25 PM 42.4725 -87.0500 250° West 319 367 10,000 -677 Descending Chicago Center
Tue 05:59:27 PM 42.4394 -87.1625 248° West 322 371 10,000 -435 Level Chicago Center
Tue 06:00:29 PM 42.4156 -87.2522 250° West 253 291 9,100 -532 Descending Chicago Center
Tue 06:01:31 PM 42.3919 -87.3381 250° West 244 281 8,900 -1,016 Descending Chicago Center
Tue 06:02:33 PM 42.3644 -87.4383 250° West 238 274 7,000 -919 Descending Chicago Center
Tue 06:03:35 PM 42.3331 -87.5156 241° Southwest 236 272 7,000 -48 Level Chicago Center
Tue 06:04:37 PM 42.2878 -87.5767 225° Southwest 241 277 6,900 -624 Descending Chicago Center
Tue 06:05:40 PM 42.2364 -87.6328 219° Southwest 205 236 5,700 -912 Descending Chicago Center
Tue 06:06:42 PM 42.2000 -87.6736 220° Southwest 175 201 5,000 -387 Descending Chicago Center
Tue 06:07:44 PM 42.1678 -87.7081 218° Southwest 154 177 4,900 -435 Descending Chicago Center
Tue 06:08:46 PM 42.1331 -87.7453 218° Southwest 158 182 4,100 -874 Descending Chicago Center
Tue 06:09:27 PM 42.1000 -87.7667 206° Southwest 153 176 3,400 -938 Descending Chicago TRACON
Tue 06:10:22 PM 42.0833 -87.8167 246° West 156 180 2,600 -873 Descending Chicago TRACON

Login

Don't have an account? Register now (free) for customized features, flight alerts, and more!